createdAt,value
2023-05-10T00:02:34.337Z,101939.34
2023-05-10T00:07:36.507Z,101930.63
2023-05-10T00:12:38.694Z,101938.75
2023-05-10T00:17:41.107Z,101936.28
2023-05-10T00:22:43.379Z,101919.44
2023-05-10T00:27:45.419Z,101914.63
2023-05-10T00:32:49.320Z,101911.81
2023-05-10T00:37:51.484Z,101894.56
2023-05-10T00:42:53.643Z,101888.88
2023-05-10T00:47:57.308Z,101885.13
2023-05-10T00:53:00.899Z,101892.75
2023-05-10T00:58:03.277Z,101889.84
2023-05-10T01:03:05.461Z,101886.06
2023-05-10T01:08:09.851Z,101871.16
2023-05-10T01:13:13.513Z,101858.03
2023-05-10T01:18:16.646Z,101864.47
2023-05-10T01:23:36.419Z,101847.63
2023-05-10T01:28:51.087Z,101840.09
2023-05-10T01:34:00.244Z,101846.19
2023-05-10T01:39:37.861Z,101841.19
2023-05-10T01:44:42.983Z,101839.63
2023-05-10T01:49:50.677Z,101851.13
2023-05-10T01:55:02.886Z,101841.06
2023-05-10T02:00:06.127Z,101832.09
2023-05-10T02:05:18.712Z,101837.78
2023-05-10T02:10:21.321Z,101831.50
2023-05-10T02:15:26.100Z,101820.69
2023-05-10T02:20:28.636Z,101827.00
2023-05-10T02:25:32.759Z,101826.16
2023-05-10T02:30:36.422Z,101820.56
2023-05-10T02:35:39.552Z,101828.69
2023-05-10T02:40:43.778Z,101826.88
2023-05-10T02:45:49.510Z,101827.72
2023-05-10T02:50:54.207Z,101839.13
2023-05-10T02:55:58.461Z,101831.50
2023-05-10T03:01:01.595Z,101833.16
2023-05-10T03:06:03.996Z,101834.16
2023-05-10T03:11:24.514Z,101821.53
2023-05-10T03:16:33.772Z,101827.00
2023-05-10T03:21:43.350Z,101810.25
2023-05-10T03:26:46.833Z,101797.03
2023-05-10T03:31:52.818Z,101787.31
2023-05-10T03:36:55.102Z,101796.28
2023-05-10T03:41:58.298Z,101816.44
2023-05-10T03:47:01.019Z,101813.78
2023-05-10T03:52:03.741Z,101807.69
2023-05-10T03:57:07.144Z,101816.56
2023-05-10T04:02:10.000Z,101800.44
2023-05-10T04:07:12.396Z,101819.97
2023-05-10T04:12:15.811Z,101821.91
2023-05-10T04:17:17.928Z,101818.25
2023-05-10T04:22:20.142Z,101826.38
2023-05-10T04:27:22.277Z,101820.06
2023-05-10T04:32:24.820Z,101829.91
2023-05-10T04:37:26.893Z,101836.19
2023-05-10T04:42:29.260Z,101837.06
2023-05-10T04:47:31.312Z,101839.81
2023-05-10T04:52:33.582Z,101843.34
2023-05-10T04:57:35.761Z,101861.06
2023-05-10T05:02:38.013Z,101862.88
2023-05-10T05:07:40.466Z,101871.84
2023-05-10T05:12:42.588Z,101877.19
2023-05-10T05:17:44.962Z,101873.81
2023-05-10T05:22:47.106Z,101887.88
2023-05-10T05:27:49.177Z,101901.09
2023-05-10T05:32:51.324Z,101906.44
2023-05-10T05:37:53.420Z,101914.56
2023-05-10T05:42:55.630Z,101923.56
2023-05-10T05:47:57.721Z,101914.91
2023-05-10T05:52:59.971Z,101916.50
2023-05-10T05:58:02.334Z,101924.50
2023-05-10T06:03:04.935Z,101920.13
2023-05-10T06:08:07.328Z,101931.56
2023-05-10T06:13:09.616Z,101921.94
2023-05-10T06:18:11.928Z,101919.38
2023-05-10T06:23:14.113Z,101921.94
2023-05-10T06:28:16.217Z,101920.25
2023-05-10T06:33:18.598Z,101923.88
2023-05-10T06:38:20.710Z,101924.84
2023-05-10T06:43:22.868Z,101923.75
2023-05-10T06:48:25.033Z,101928.25
2023-05-10T06:53:27.139Z,101926.31
2023-05-10T06:58:29.392Z,101922.16
2023-05-10T07:03:31.749Z,101931.16
2023-05-10T07:08:34.596Z,101935.50
2023-05-10T07:13:37.664Z,101942.69
2023-05-10T07:18:39.952Z,101951.66
2023-05-10T07:23:43.678Z,101957.00
2023-05-10T07:28:47.185Z,101956.03
2023-05-10T07:33:49.315Z,101964.16
2023-05-10T07:38:51.450Z,101964.22
2023-05-10T07:43:53.565Z,101961.53
2023-05-10T07:48:55.653Z,101981.00
2023-05-10T07:53:59.108Z,101983.84
2023-05-10T07:59:01.502Z,101974.13
2023-05-10T08:04:04.390Z,101963.38
2023-05-10T08:09:06.683Z,101967.75
2023-05-10T08:14:08.800Z,101958.13
2023-05-10T08:19:10.909Z,101965.19
2023-05-10T08:24:13.083Z,101971.38
2023-05-10T08:29:16.547Z,101974.13
2023-05-10T08:34:18.640Z,101968.53
2023-05-10T08:39:29.827Z,101965.06
2023-05-10T08:44:37.567Z,101968.53
2023-05-10T08:49:40.882Z,101976.59
2023-05-10T08:54:43.427Z,101974.88
2023-05-10T08:59:45.768Z,101964.22
2023-05-10T09:04:48.041Z,101974.88
2023-05-10T09:09:50.446Z,101984.53
2023-05-10T09:14:55.565Z,101982.91
2023-05-10T09:20:01.720Z,101981.28
2023-05-10T09:25:10.550Z,101972.31
2023-05-10T09:30:17.182Z,101982.81
2023-05-10T09:35:23.331Z,101986.63
2023-05-10T09:40:27.699Z,101982.38
2023-05-10T09:45:32.474Z,101985.81
2023-05-10T09:50:35.385Z,101973.19
2023-05-10T09:55:37.621Z,101961.66
2023-05-10T10:00:44.995Z,101956.47
2023-05-10T10:05:48.885Z,101974.88
2023-05-10T10:10:54.388Z,101985.50
2023-05-10T10:15:56.667Z,101983.97
2023-05-10T10:20:59.450Z,101992.72
2023-05-10T10:26:05.624Z,101983.84
2023-05-10T10:31:33.661Z,101991.97
2023-05-10T10:36:46.098Z,101999.16
2023-05-10T10:41:56.490Z,101999.75
2023-05-10T10:47:26.309Z,101995.38
2023-05-10T10:52:42.509Z,101989.00
2023-05-10T10:57:56.024Z,101976.59
2023-05-10T11:03:00.997Z,101991.75
2023-05-10T11:08:30.789Z,101973.28
2023-05-10T11:13:43.181Z,101972.22
2023-05-10T11:19:04.807Z,101970.50
2023-05-10T11:24:15.071Z,101965.06
2023-05-10T11:29:17.488Z,101973.94
2023-05-10T11:34:36.104Z,101965.94
2023-05-10T11:39:38.281Z,101957.84
2023-05-10T11:44:40.470Z,101978.34
2023-05-10T11:49:46.169Z,101975.84
2023-05-10T11:54:55.878Z,101978.41
2023-05-10T11:59:58.617Z,101970.41
2023-05-10T12:05:01.690Z,101974.13
2023-05-10T12:10:13.523Z,101967.00
2023-05-10T12:15:24.001Z,101959.66
2023-05-10T12:20:29.027Z,101957.16
2023-05-10T12:25:35.669Z,101958.13
2023-05-10T12:30:38.502Z,101956.13
2023-05-10T12:35:51.958Z,101949.91
2023-05-10T12:40:54.054Z,101960.78
2023-05-10T12:45:56.609Z,101965.19
2023-05-10T12:50:58.682Z,101970.41
2023-05-10T12:56:00.920Z,101969.66
2023-05-10T13:01:04.091Z,101974.13
2023-05-10T13:06:07.518Z,101975.00
2023-05-10T13:11:09.686Z,101966.03
2023-05-10T13:16:11.846Z,101964.47
2023-05-10T13:21:13.950Z,101961.91
2023-05-10T13:26:16.117Z,101966.28
2023-05-10T13:31:18.293Z,101965.19
2023-05-10T13:36:20.517Z,101961.16
2023-05-10T13:41:22.830Z,101954.00
2023-05-10T13:46:24.954Z,101961.16
2023-05-10T13:51:27.085Z,101961.03
2023-05-10T13:56:29.415Z,101949.50
2023-05-10T14:01:31.582Z,101936.28
2023-05-10T14:06:33.765Z,101931.81
2023-05-10T14:11:36.032Z,101938.84
2023-05-10T14:16:38.224Z,101935.31
2023-05-10T14:21:40.438Z,101937.13
2023-05-10T14:26:42.505Z,101929.97
2023-05-10T14:31:44.605Z,101935.09
2023-05-10T14:36:46.875Z,101930.72
2023-05-10T14:41:48.893Z,101930.72
2023-05-10T14:46:50.971Z,101921.78
2023-05-10T14:51:53.665Z,101917.41
2023-05-10T14:56:55.759Z,101902.09
2023-05-10T15:01:57.887Z,101899.44
2023-05-10T15:07:01.071Z,101902.84
2023-05-10T15:12:03.057Z,101892.28
2023-05-10T15:17:08.547Z,101896.53
2023-05-10T15:22:10.586Z,101893.66
2023-05-10T15:27:12.937Z,101901.88
2023-05-10T15:32:15.013Z,101900.28
2023-05-10T15:37:17.163Z,101903.50
2023-05-10T15:42:19.313Z,101896.22
2023-05-10T15:47:21.497Z,101892.09
2023-05-10T15:52:24.554Z,101888.53
2023-05-10T15:57:26.699Z,101885.97
2023-05-10T16:02:28.918Z,101884.09
2023-05-10T16:07:31.133Z,101887.38
2023-05-10T16:12:33.550Z,101890.16
2023-05-10T16:17:35.953Z,101880.75
2023-05-10T16:22:38.249Z,101884.16
2023-05-10T16:27:40.388Z,101877.00
2023-05-10T16:32:43.103Z,101877.53
2023-05-10T16:37:45.425Z,101874.03
2023-05-10T16:42:47.520Z,101878.84
2023-05-10T16:47:49.861Z,101871.47
2023-05-10T16:52:51.979Z,101865.16
2023-05-10T16:57:59.869Z,101875.84
2023-05-10T17:03:02.120Z,101877.88
2023-05-10T17:08:04.562Z,101871.59
2023-05-10T17:13:08.676Z,101878.50
2023-05-10T17:18:12.243Z,101870.50
2023-05-10T17:23:14.409Z,101880.47
2023-05-10T17:28:16.526Z,101883.13
2023-05-10T17:33:18.612Z,101886.66
2023-05-10T17:38:20.728Z,101887.47
2023-05-10T17:43:23.670Z,101886.50
2023-05-10T17:48:25.844Z,101885.44
2023-05-10T17:53:27.965Z,101888.13
2023-05-10T17:58:30.615Z,101890.88
2023-05-10T18:03:33.262Z,101894.41
2023-05-10T18:08:35.544Z,101900.59
2023-05-10T18:13:37.678Z,101902.41
2023-05-10T18:18:40.056Z,101909.69
2023-05-10T18:23:42.259Z,101909.56
2023-05-10T18:28:44.425Z,101913.09
2023-05-10T18:33:46.906Z,101905.09
2023-05-10T18:38:49.284Z,101911.50
2023-05-10T18:43:51.371Z,101914.16
2023-05-10T18:48:54.846Z,101911.63
2023-05-10T18:53:56.948Z,101915.16
2023-05-10T18:58:59.115Z,101918.78
2023-05-10T19:04:01.344Z,101923.88
2023-05-10T19:09:03.741Z,101918.31
2023-05-10T19:14:06.113Z,101927.50
2023-05-10T19:19:08.330Z,101932.03
2023-05-10T19:24:12.463Z,101939.25
2023-05-10T19:29:14.817Z,101943.50
2023-05-10T19:34:17.117Z,101946.06
2023-05-10T19:39:19.755Z,101955.88
2023-05-10T19:44:23.872Z,101962.94
2023-05-10T19:49:26.286Z,101962.09
2023-05-10T19:54:28.503Z,101970.94
2023-05-10T19:59:30.600Z,101965.72
2023-05-10T20:04:34.080Z,101975.44
2023-05-10T20:09:36.135Z,101981.72
2023-05-10T20:14:38.487Z,101989.72
2023-05-10T20:19:40.609Z,101991.69
2023-05-10T20:24:42.676Z,101989.72
2023-05-10T20:29:44.704Z,101988.06
2023-05-10T20:34:46.882Z,101989.00
2023-05-10T20:39:50.463Z,101983.69
2023-05-10T20:44:52.626Z,101985.38
2023-05-10T20:49:54.636Z,101983.53
2023-05-10T20:54:56.539Z,101984.38
2023-05-10T20:59:58.528Z,101988.06
2023-05-10T21:05:00.761Z,101985.38
2023-05-10T21:10:03.312Z,101983.69
2023-05-10T21:15:05.795Z,101982.81
2023-05-10T21:20:08.617Z,101983.75
2023-05-10T21:25:10.912Z,101990.91
2023-05-10T21:30:13.116Z,101988.16
2023-05-10T21:35:15.699Z,101981.00
2023-05-10T21:40:18.275Z,101981.19
2023-05-10T21:45:20.608Z,101980.47
2023-05-10T21:50:23.110Z,101990.03
2023-05-10T21:55:25.290Z,101982.91
2023-05-10T22:00:27.440Z,101979.38
2023-05-10T22:05:29.539Z,101988.22
2023-05-10T22:10:31.706Z,101980.34
2023-05-10T22:15:36.398Z,101985.66
2023-05-10T22:20:38.891Z,101986.53
2023-05-10T22:25:40.873Z,101991.97
2023-05-10T22:30:43.941Z,101981.19
2023-05-10T22:35:46.312Z,101978.88
2023-05-10T22:40:48.503Z,101981.28
2023-05-10T22:45:50.588Z,101985.81
2023-05-10T22:50:52.586Z,101988.56
2023-05-10T22:55:54.849Z,101986.63
2023-05-10T23:00:57.049Z,101985.66
2023-05-10T23:05:59.011Z,101983.97
2023-05-10T23:11:01.035Z,101984.09
2023-05-10T23:16:07.016Z,101973.44
2023-05-10T23:21:09.299Z,101978.75
2023-05-10T23:26:11.517Z,101976.94
2023-05-10T23:31:13.945Z,101983.25
2023-05-10T23:36:15.905Z,101967.94
2023-05-10T23:41:17.937Z,101975.25
2023-05-10T23:46:20.071Z,101970.13
2023-05-10T23:51:22.301Z,101970.84
2023-05-10T23:56:24.282Z,101970.97
